Snow Lake, Arkansas
Current Conditions -  °F | °C
As of 10:55 PM on Saturday 22 Nov 2014 (Local Time) from KRNV Reporting Station
Scattered Clouds Scattered Clouds  
Wind Chill: 56°   Ceiling: Unl
Heat Index: 56°   Visibility: 10mi
Dew Point: 52°   Wind: 8mph
Humidity: 86%   Direction: 100°E
Pressure: 29.92"   Gusts: NA
Location:  34.06°N, 91.02°W
Report Text: KRNV 230455Z AUTO 10007KT 10SM SCT100 13/11 A2992 RMK AO2 T01320109
Loading
Personal Weather Stations






























Interactive Weather Map New forecast layout! Learn more

10-Day Weather Forecast

Advertisements
Track Severe Weather on mobile